Disclaimer

Please do not use the information listed here in-flight or in-navigation, as they are not provided to us by the airports but are provided by volunteers, so they might be outdated.

Search


Regions


Airport information page

Radio informations:
Tower (TWR) - 121.3 MHz
RDO - 5790 MHz
Ground (GND) - 121.9 MHz

Airport informations:
Latitude: 28° 12' 32.50" N
Longitude: 033° 38' 43.86" E
Elevation: 115 feet - 35 meters
Operating hours: From sunrise to sunset (SR-SS)
Operating agency: Civil government, landing fees and diplomatic clearance may be required
Timezone: UTC+2(+3DT) - Dates notified by NOTAM
Fuel: N/A

Runway information:
10/28 - 9843 x 148 feet< - >3000 x 45 meters

Recent METARs:
HETR 130300Z 01006KT CAVOK 18/10 Q1014
HETR 130400Z 02007KT CAVOK 18/09 Q1014
HETR 130400Z 02007KT CAVOK 18/09 Q1014

Airport on the map: